sensor_id;sensor_type;location;lat;lon;timestamp;P1;durP1;ratioP1;P2;durP2;ratioP2
72603;SDS011;60645;56.968;24.196;2022-12-17T00:00:13;18.90;;;5.70;;
72603;SDS011;60645;56.968;24.196;2022-12-17T00:02:59;18.10;;;5.57;;
72603;SDS011;60645;56.968;24.196;2022-12-17T00:05:45;21.02;;;5.97;;
72603;SDS011;60645;56.968;24.196;2022-12-17T00:08:31;22.55;;;5.93;;
72603;SDS011;60645;56.968;24.196;2022-12-17T00:11:17;21.35;;;6.35;;
72603;SDS011;60645;56.968;24.196;2022-12-17T00:14:02;21.38;;;6.90;;
72603;SDS011;60645;56.968;24.196;2022-12-17T00:16:47;19.45;;;6.82;;
72603;SDS011;60645;56.968;24.196;2022-12-17T00:19:33;20.00;;;6.28;;
72603;SDS011;60645;56.968;24.196;2022-12-17T00:22:21;17.17;;;5.18;;
72603;SDS011;60645;56.968;24.196;2022-12-17T00:25:07;21.08;;;5.47;;
72603;SDS011;60645;56.968;24.196;2022-12-17T00:27:52;19.25;;;6.28;;
72603;SDS011;60645;56.968;24.196;2022-12-17T00:30:38;19.63;;;6.75;;
72603;SDS011;60645;56.968;24.196;2022-12-17T00:33:23;21.88;;;6.43;;
72603;SDS011;60645;56.968;24.196;2022-12-17T00:36:09;20.45;;;5.78;;
72603;SDS011;60645;56.968;24.196;2022-12-17T00:38:54;16.33;;;5.75;;
72603;SDS011;60645;56.968;24.196;2022-12-17T00:41:40;15.18;;;5.07;;
72603;SDS011;60645;56.968;24.196;2022-12-17T00:44:25;18.75;;;5.20;;
72603;SDS011;60645;56.968;24.196;2022-12-17T00:47:11;21.52;;;5.90;;
72603;SDS011;60645;56.968;24.196;2022-12-17T00:49:56;21.15;;;6.85;;
72603;SDS011;60645;56.968;24.196;2022-12-17T00:52:42;23.33;;;6.85;;
72603;SDS011;60645;56.968;24.196;2022-12-17T00:55:27;24.67;;;7.47;;
72603;SDS011;60645;56.968;24.196;2022-12-17T00:58:12;19.00;;;6.70;;
72603;SDS011;60645;56.968;24.196;2022-12-17T01:00:59;17.55;;;6.00;;
72603;SDS011;60645;56.968;24.196;2022-12-17T01:03:45;19.98;;;6.18;;
72603;SDS011;60645;56.968;24.196;2022-12-17T01:06:30;21.58;;;6.80;;
72603;SDS011;60645;56.968;24.196;2022-12-17T01:09:16;17.33;;;5.90;;
72603;SDS011;60645;56.968;24.196;2022-12-17T01:12:02;23.45;;;6.40;;
72603;SDS011;60645;56.968;24.196;2022-12-17T01:14:47;22.80;;;6.82;;
72603;SDS011;60645;56.968;24.196;2022-12-17T01:17:33;22.05;;;6.25;;
72603;SDS011;60645;56.968;24.196;2022-12-17T01:20:21;23.05;;;5.57;;
72603;SDS011;60645;56.968;24.196;2022-12-17T01:23:07;18.92;;;6.10;;
72603;SDS011;60645;56.968;24.196;2022-12-17T01:25:53;20.38;;;6.50;;
72603;SDS011;60645;56.968;24.196;2022-12-17T01:28:39;19.63;;;6.20;;
72603;SDS011;60645;56.968;24.196;2022-12-17T01:31:25;19.23;;;6.03;;
72603;SDS011;60645;56.968;24.196;2022-12-17T01:34:10;16.38;;;5.43;;
72603;SDS011;60645;56.968;24.196;2022-12-17T01:36:56;12.88;;;3.90;;
72603;SDS011;60645;56.968;24.196;2022-12-17T01:39:41;18.45;;;5.05;;
72603;SDS011;60645;56.968;24.196;2022-12-17T01:42:26;18.42;;;6.18;;
72603;SDS011;60645;56.968;24.196;2022-12-17T01:45:45;17.08;;;5.53;;
72603;SDS011;60645;56.968;24.196;2022-12-17T01:48:35;19.73;;;5.97;;
72603;SDS011;60645;56.968;24.196;2022-12-17T01:54:09;16.38;;;4.90;;
72603;SDS011;60645;56.968;24.196;2022-12-17T01:56:55;14.70;;;4.63;;
72603;SDS011;60645;56.968;24.196;2022-12-17T01:59:57;14.45;;;4.68;;
72603;SDS011;60645;56.968;24.196;2022-12-17T02:02:46;14.32;;;4.82;;
72603;SDS011;60645;56.968;24.196;2022-12-17T02:14:32;17.70;;;4.65;;
72603;SDS011;60645;56.968;24.196;2022-12-17T02:17:24;10.10;;;3.53;;
72603;SDS011;60645;56.968;24.196;2022-12-17T02:20:23;11.38;;;3.75;;
72603;SDS011;60645;56.968;24.196;2022-12-17T02:23:24;7.18;;;2.60;;
72603;SDS011;60645;56.968;24.196;2022-12-17T02:26:36;9.60;;;3.17;;
72603;SDS011;60645;56.968;24.196;2022-12-17T02:29:25;10.18;;;3.58;;
72603;SDS011;60645;56.968;24.196;2022-12-17T02:32:12;8.02;;;2.60;;
72603;SDS011;60645;56.968;24.196;2022-12-17T02:34:59;10.48;;;2.90;;
72603;SDS011;60645;56.968;24.196;2022-12-17T02:37:46;6.25;;;2.25;;
72603;SDS011;60645;56.968;24.196;2022-12-17T02:40:33;7.03;;;2.20;;
72603;SDS011;60645;56.968;24.196;2022-12-17T02:43:22;7.20;;;2.38;;
72603;SDS011;60645;56.968;24.196;2022-12-17T02:46:10;8.30;;;2.85;;
72603;SDS011;60645;56.968;24.196;2022-12-17T02:48:56;8.73;;;2.40;;
72603;SDS011;60645;56.968;24.196;2022-12-17T02:51:41;7.10;;;2.40;;
72603;SDS011;60645;56.968;24.196;2022-12-17T02:54:28;8.68;;;2.70;;
72603;SDS011;60645;56.968;24.196;2022-12-17T02:57:15;7.88;;;2.75;;
72603;SDS011;60645;56.968;24.196;2022-12-17T03:00:02;4.85;;;2.17;;
72603;SDS011;60645;56.968;24.196;2022-12-17T03:02:53;6.03;;;2.30;;
72603;SDS011;60645;56.968;24.196;2022-12-17T03:05:39;6.15;;;2.45;;
72603;SDS011;60645;56.968;24.196;2022-12-17T03:08:24;5.50;;;1.92;;
72603;SDS011;60645;56.968;24.196;2022-12-17T03:11:09;4.80;;;1.75;;
72603;SDS011;60645;56.968;24.196;2022-12-17T03:13:58;4.47;;;1.63;;
72603;SDS011;60645;56.968;24.196;2022-12-17T03:16:43;5.55;;;2.40;;
72603;SDS011;60645;56.968;24.196;2022-12-17T03:19:28;5.63;;;1.90;;
72603;SDS011;60645;56.968;24.196;2022-12-17T03:22:14;5.78;;;1.77;;
72603;SDS011;60645;56.968;24.196;2022-12-17T03:24:59;7.43;;;2.38;;
72603;SDS011;60645;56.968;24.196;2022-12-17T03:27:45;12.77;;;3.92;;
72603;SDS011;60645;56.968;24.196;2022-12-17T03:30:31;16.30;;;5.15;;
72603;SDS011;60645;56.968;24.196;2022-12-17T03:33:16;13.38;;;3.85;;
72603;SDS011;60645;56.968;24.196;2022-12-17T03:36:02;6.32;;;2.00;;
72603;SDS011;60645;56.968;24.196;2022-12-17T03:38:47;12.02;;;3.65;;
72603;SDS011;60645;56.968;24.196;2022-12-17T03:41:33;9.75;;;3.60;;
72603;SDS011;60645;56.968;24.196;2022-12-17T03:44:18;15.63;;;4.60;;
72603;SDS011;60645;56.968;24.196;2022-12-17T03:47:04;26.48;;;8.32;;
72603;SDS011;60645;56.968;24.196;2022-12-17T03:49:49;19.52;;;5.97;;
72603;SDS011;60645;56.968;24.196;2022-12-17T03:52:35;11.55;;;3.72;;
72603;SDS011;60645;56.968;24.196;2022-12-17T03:55:20;12.43;;;3.92;;
72603;SDS011;60645;56.968;24.196;2022-12-17T03:58:06;12.57;;;3.22;;
72603;SDS011;60645;56.968;24.196;2022-12-17T04:00:51;9.15;;;3.00;;
72603;SDS011;60645;56.968;24.196;2022-12-17T04:03:37;6.47;;;2.13;;
72603;SDS011;60645;56.968;24.196;2022-12-17T04:06:26;6.50;;;2.47;;
72603;SDS011;60645;56.968;24.196;2022-12-17T04:09:12;7.25;;;2.85;;
72603;SDS011;60645;56.968;24.196;2022-12-17T04:11:57;7.05;;;2.70;;
72603;SDS011;60645;56.968;24.196;2022-12-17T04:14:43;9.23;;;2.38;;
72603;SDS011;60645;56.968;24.196;2022-12-17T04:17:28;10.57;;;2.83;;
72603;SDS011;60645;56.968;24.196;2022-12-17T04:20:14;7.75;;;2.72;;
72603;SDS011;60645;56.968;24.196;2022-12-17T04:22:59;9.07;;;3.55;;
72603;SDS011;60645;56.968;24.196;2022-12-17T04:25:44;9.20;;;2.88;;
72603;SDS011;60645;56.968;24.196;2022-12-17T04:28:29;7.97;;;3.50;;
72603;SDS011;60645;56.968;24.196;2022-12-17T04:31:15;7.43;;;2.67;;
72603;SDS011;60645;56.968;24.196;2022-12-17T04:34:00;9.13;;;3.95;;
72603;SDS011;60645;56.968;24.196;2022-12-17T04:36:45;7.75;;;2.40;;
72603;SDS011;60645;56.968;24.196;2022-12-17T04:39:31;6.10;;;2.00;;
72603;SDS011;60645;56.968;24.196;2022-12-17T04:42:17;4.53;;;1.73;;
72603;SDS011;60645;56.968;24.196;2022-12-17T04:45:02;7.47;;;2.40;;
